sensor_id;sensor_type;location;lat;lon;timestamp;pressure;altitude;pressure_sealevel;temperature;humidity
13312;BME280;34033;48.672;9.376;2022-11-15T00:01:14;98359.78;;;7.63;88.14
13312;BME280;34033;48.672;9.376;2022-11-15T00:03:41;98347.63;;;7.71;87.97
13312;BME280;34033;48.672;9.376;2022-11-15T00:06:07;98350.88;;;7.76;88.13
13312;BME280;34033;48.672;9.376;2022-11-15T00:08:32;98355.72;;;7.83;87.78
13312;BME280;34033;48.672;9.376;2022-11-15T00:11:00;98359.38;;;7.87;87.36
13312;BME280;34033;48.672;9.376;2022-11-15T00:13:26;98357.78;;;7.86;87.07
13312;BME280;34033;48.672;9.376;2022-11-15T00:15:52;98358.47;;;7.79;87.37
13312;BME280;34033;48.672;9.376;2022-11-15T00:18:18;98359.22;;;7.76;87.26
13312;BME280;34033;48.672;9.376;2022-11-15T00:20:43;98362.50;;;7.82;87.18
13312;BME280;34033;48.672;9.376;2022-11-15T00:23:09;98356.13;;;7.81;86.96
13312;BME280;34033;48.672;9.376;2022-11-15T00:25:35;98354.50;;;7.80;87.51
13312;BME280;34033;48.672;9.376;2022-11-15T00:28:00;98358.94;;;7.85;87.01
13312;BME280;34033;48.672;9.376;2022-11-15T00:30:27;98348.50;;;7.78;86.93
13312;BME280;34033;48.672;9.376;2022-11-15T00:32:52;98346.84;;;7.74;87.81
13312;BME280;34033;48.672;9.376;2022-11-15T00:35:18;98347.63;;;7.71;87.50
13312;BME280;34033;48.672;9.376;2022-11-15T00:37:44;98343.53;;;7.65;88.03
13312;BME280;34033;48.672;9.376;2022-11-15T00:40:10;98342.78;;;7.68;88.07
13312;BME280;34033;48.672;9.376;2022-11-15T00:42:38;98335.91;;;7.62;87.74
13312;BME280;34033;48.672;9.376;2022-11-15T00:45:03;98334.69;;;7.59;88.36
13312;BME280;34033;48.672;9.376;2022-11-15T00:47:28;98333.56;;;7.64;88.22
13312;BME280;34033;48.672;9.376;2022-11-15T00:49:54;98335.19;;;7.65;88.17
13312;BME280;34033;48.672;9.376;2022-11-15T00:52:19;98334.88;;;7.70;88.53
13312;BME280;34033;48.672;9.376;2022-11-15T00:54:44;98332.56;;;7.75;88.05
13312;BME280;34033;48.672;9.376;2022-11-15T00:57:10;98331.06;;;7.81;87.36
13312;BME280;34033;48.672;9.376;2022-11-15T00:59:35;98331.91;;;7.85;86.57
13312;BME280;34033;48.672;9.376;2022-11-15T01:02:00;98333.56;;;7.90;86.59
13312;BME280;34033;48.672;9.376;2022-11-15T01:04:26;98331.22;;;7.92;86.47
13312;BME280;34033;48.672;9.376;2022-11-15T01:06:51;98314.91;;;7.90;86.00
13312;BME280;34033;48.672;9.376;2022-11-15T01:09:17;98309.28;;;7.87;85.96
13312;BME280;34033;48.672;9.376;2022-11-15T01:11:42;98310.09;;;7.87;85.60
13312;BME280;34033;48.672;9.376;2022-11-15T01:14:07;98305.34;;;7.88;85.96
13312;BME280;34033;48.672;9.376;2022-11-15T01:16:33;98310.09;;;7.87;85.42
13312;BME280;34033;48.672;9.376;2022-11-15T01:18:59;98316.75;;;7.83;85.22
13312;BME280;34033;48.672;9.376;2022-11-15T01:21:24;98302.41;;;7.77;85.66
13312;BME280;34033;48.672;9.376;2022-11-15T01:23:53;98304.75;;;7.75;85.60
13312;BME280;34033;48.672;9.376;2022-11-15T01:26:20;98301.97;;;7.75;86.26
13312;BME280;34033;48.672;9.376;2022-11-15T01:28:45;98288.03;;;7.75;85.30
13312;BME280;34033;48.672;9.376;2022-11-15T01:31:14;98295.22;;;7.76;85.66
13312;BME280;34033;48.672;9.376;2022-11-15T01:33:40;98298.41;;;7.78;85.33
13312;BME280;34033;48.672;9.376;2022-11-15T01:36:07;98298.00;;;7.76;85.20
13312;BME280;34033;48.672;9.376;2022-11-15T01:38:33;98291.19;;;7.74;85.11
13312;BME280;34033;48.672;9.376;2022-11-15T01:40:59;98299.88;;;7.69;85.63
13312;BME280;34033;48.672;9.376;2022-11-15T01:43:36;98289.91;;;7.68;85.98
13312;BME280;34033;48.672;9.376;2022-11-15T01:46:17;98295.06;;;7.66;85.34
13312;BME280;34033;48.672;9.376;2022-11-15T01:48:44;98297.84;;;7.66;84.81
13312;BME280;34033;48.672;9.376;2022-11-15T01:51:11;98291.84;;;7.64;84.49
13312;BME280;34033;48.672;9.376;2022-11-15T01:53:40;98296.56;;;7.60;84.63
13312;BME280;34033;48.672;9.376;2022-11-15T01:56:10;98284.97;;;7.54;84.39
13312;BME280;34033;48.672;9.376;2022-11-15T01:58:37;98291.16;;;7.44;85.19
13312;BME280;34033;48.672;9.376;2022-11-15T02:01:03;98288.25;;;7.37;85.05
13312;BME280;34033;48.672;9.376;2022-11-15T02:03:41;98284.53;;;7.29;85.68
13312;BME280;34033;48.672;9.376;2022-11-15T02:06:09;98287.63;;;7.47;93.10
13312;BME280;34033;48.672;9.376;2022-11-15T02:08:35;98279.16;;;7.40;88.37
13312;BME280;34033;48.672;9.376;2022-11-15T02:11:00;98285.13;;;7.38;86.50
13312;BME280;34033;48.672;9.376;2022-11-15T02:13:25;98268.44;;;7.38;86.63
13312;BME280;34033;48.672;9.376;2022-11-15T02:16:10;98270.72;;;7.33;85.94
13312;BME280;34033;48.672;9.376;2022-11-15T02:18:43;98264.66;;;7.27;86.18
13312;BME280;34033;48.672;9.376;2022-11-15T02:21:28;98276.22;;;7.29;86.28
13312;BME280;34033;48.672;9.376;2022-11-15T02:24:11;98264.72;;;7.31;85.79
13312;BME280;34033;48.672;9.376;2022-11-15T02:29:52;98257.38;;;7.19;85.98
13312;BME280;34033;48.672;9.376;2022-11-15T02:36:08;98260.78;;;7.09;86.58
13312;BME280;34033;48.672;9.376;2022-11-15T02:38:46;98256.53;;;7.15;85.70
13312;BME280;34033;48.672;9.376;2022-11-15T02:41:17;98263.25;;;7.14;85.86
13312;BME280;34033;48.672;9.376;2022-11-15T02:43:50;98261.50;;;7.06;86.95
13312;BME280;34033;48.672;9.376;2022-11-15T02:46:40;98257.47;;;7.00;87.64
13312;BME280;34033;48.672;9.376;2022-11-15T02:49:28;98256.66;;;6.99;87.49
13312;BME280;34033;48.672;9.376;2022-11-15T02:51:55;98243.56;;;7.00;87.31
13312;BME280;34033;48.672;9.376;2022-11-15T02:54:26;98247.56;;;7.02;86.35
13312;BME280;34033;48.672;9.376;2022-11-15T02:56:55;98235.25;;;7.00;86.10
13312;BME280;34033;48.672;9.376;2022-11-15T03:02:23;98241.28;;;7.05;85.66
13312;BME280;34033;48.672;9.376;2022-11-15T03:04:59;98245.66;;;7.06;86.29
13312;BME280;34033;48.672;9.376;2022-11-15T03:10:22;98236.63;;;7.13;86.06
13312;BME280;34033;48.672;9.376;2022-11-15T03:15:55;98237.44;;;7.13;85.76
13312;BME280;34033;48.672;9.376;2022-11-15T03:18:31;98235.81;;;7.12;86.31
13312;BME280;34033;48.672;9.376;2022-11-15T03:21:00;98231.03;;;7.09;85.58
13312;BME280;34033;48.672;9.376;2022-11-15T03:23:28;98231.50;;;7.15;85.85
13312;BME280;34033;48.672;9.376;2022-11-15T03:25:56;98226.28;;;7.10;85.62
13312;BME280;34033;48.672;9.376;2022-11-15T03:28:28;98228.56;;;7.04;84.80
13312;BME280;34033;48.672;9.376;2022-11-15T03:30:58;98213.38;;;6.98;85.33
13312;BME280;34033;48.672;9.376;2022-11-15T03:33:24;98217.69;;;6.96;84.85
13312;BME280;34033;48.672;9.376;2022-11-15T03:35:52;98207.69;;;6.91;85.22
13312;BME280;34033;48.672;9.376;2022-11-15T03:38:22;98212.88;;;6.93;85.12
13312;BME280;34033;48.672;9.376;2022-11-15T03:40:55;98201.00;;;6.96;84.39
13312;BME280;34033;48.672;9.376;2022-11-15T03:46:38;98208.94;;;6.94;84.24
13312;BME280;34033;48.672;9.376;2022-11-15T03:49:19;98207.31;;;6.93;84.16
13312;BME280;34033;48.672;9.376;2022-11-15T03:51:47;98188.63;;;7.16;94.22
13312;BME280;34033;48.672;9.376;2022-11-15T03:54:13;98201.97;;;7.07;89.20
13312;BME280;34033;48.672;9.376;2022-11-15T03:56:38;98198.03;;;7.08;87.04
13312;BME280;34033;48.672;9.376;2022-11-15T03:59:04;98181.34;;;7.08;85.63
13312;BME280;34033;48.672;9.376;2022-11-15T04:01:29;98185.75;;;7.09;84.99
13312;BME280;34033;48.672;9.376;2022-11-15T04:03:54;98185.31;;;7.07;84.72
13312;BME280;34033;48.672;9.376;2022-11-15T04:06:19;98182.44;;;7.00;84.43
13312;BME280;34033;48.672;9.376;2022-11-15T04:08:45;98187.50;;;6.94;84.71
13312;BME280;34033;48.672;9.376;2022-11-15T04:11:10;98180.25;;;6.90;85.43
13312;BME280;34033;48.672;9.376;2022-11-15T04:13:35;98190.22;;;6.91;85.72
13312;BME280;34033;48.672;9.376;2022-11-15T04:16:01;98188.19;;;6.88;85.40
13312;BME280;34033;48.672;9.376;2022-11-15T04:18:26;98179.91;;;6.91;85.50
13312;BME280;34033;48.672;9.376;2022-11-15T04:20:51;98192.25;;;6.94;85.45
13312;BME280;34033;48.672;9.376;2022-11-15T04:23:35;98177.16;;;6.95;85.65
13312;BME280;34033;48.672;9.376;2022-11-15T04:26:22;98189.03;;;6.92;85.71
13312;BME280;34033;48.672;9.376;2022-11-15T04:28:48;98181.06;;;6.90;85.58
13312;BME280;34033;48.672;9.376;2022-11-15T04:31:32;98187.44;;;6.91;85.43
13312;BME280;34033;48.672;9.376;2022-11-15T04:33:57;98190.66;;;6.93;85.54
13312;BME280;34033;48.672;9.376;2022-11-15T04:36:23;98179.47;;;6.89;85.00
13312;BME280;34033;48.672;9.376;2022-11-15T04:39:07;98180.09;;;6.79;84.94
13312;BME280;34033;48.672;9.376;2022-11-15T04:41:32;98172.56;;;6.80;85.22
13312;BME280;34033;48.672;9.376;2022-11-15T04:43:58;98181.22;;;6.75;85.47
13312;BME280;34033;48.672;9.376;2022-11-15T04:46:24;98175.78;;;6.82;85.10
13312;BME280;34033;48.672;9.376;2022-11-15T04:48:50;98171.44;;;6.84;84.47
13312;BME280;34033;48.672;9.376;2022-11-15T04:51:15;98173.91;;;6.89;84.78
13312;BME280;34033;48.672;9.376;2022-11-15T04:53:41;98179.41;;;6.86;85.35
13312;BME280;34033;48.672;9.376;2022-11-15T04:56:06;98174.53;;;6.79;85.56
13312;BME280;34033;48.672;9.376;2022-11-15T04:58:32;98172.06;;;6.74;85.62
13312;BME280;34033;48.672;9.376;2022-11-15T05:00:57;98174.94;;;6.78;86.18
13312;BME280;34033;48.672;9.376;2022-11-15T05:03:22;98178.06;;;6.76;85.89
13312;BME280;34033;48.672;9.376;2022-11-15T05:06:06;98173.31;;;6.77;85.71
13312;BME280;34033;48.672;9.376;2022-11-15T05:08:32;98168.50;;;6.74;85.60
13312;BME280;34033;48.672;9.376;2022-11-15T05:10:57;98175.34;;;6.80;85.25
13312;BME280;34033;48.672;9.376;2022-11-15T05:13:22;98169.06;;;6.83;85.92
13312;BME280;34033;48.672;9.376;2022-11-15T05:15:48;98165.88;;;6.84;85.54
13312;BME280;34033;48.672;9.376;2022-11-15T05:18:13;98170.28;;;6.85;84.61
13312;BME280;34033;48.672;9.376;2022-11-15T05:20:39;98175.34;;;6.80;84.56
13312;BME280;34033;48.672;9.376;2022-11-15T05:23:04;98162.41;;;7.73;100.00
13312;BME280;34033;48.672;9.376;2022-11-15T05:25:30;98154.38;;;10.13;100.00
13312;BME280;34033;48.672;9.376;2022-11-15T05:27:55;98152.53;;;10.84;100.00
13312;BME280;34033;48.672;9.376;2022-11-15T05:30:20;98149.31;;;10.47;94.42
13312;BME280;34033;48.672;9.376;2022-11-15T05:32:46;98143.97;;;10.07;88.09
13312;BME280;34033;48.672;9.376;2022-11-15T05:35:18;98147.00;;;9.66;83.18
13312;BME280;34033;48.672;9.376;2022-11-15T05:37:45;98154.81;;;9.36;78.64
13312;BME280;34033;48.672;9.376;2022-11-15T05:40:11;98151.84;;;9.07;76.62
13312;BME280;34033;48.672;9.376;2022-11-15T05:42:36;98156.09;;;8.91;75.90
13312;BME280;34033;48.672;9.376;2022-11-15T05:45:04;98157.97;;;8.76;76.34
13312;BME280;34033;48.672;9.376;2022-11-15T05:47:30;98150.63;;;8.57;76.09
13312;BME280;34033;48.672;9.376;2022-11-15T05:49:57;98147.31;;;8.45;76.02
13312;BME280;34033;48.672;9.376;2022-11-15T05:52:27;98141.34;;;8.43;76.51
13312;BME280;34033;48.672;9.376;2022-11-15T05:54:55;98132.09;;;8.31;76.07
13312;BME280;34033;48.672;9.376;2022-11-15T05:57:21;98140.44;;;8.31;76.07
13312;BME280;34033;48.672;9.376;2022-11-15T05:59:47;98137.66;;;8.31;75.90
13312;BME280;34033;48.672;9.376;2022-11-15T06:02:12;98138.34;;;8.25;75.88
13312;BME280;34033;48.672;9.376;2022-11-15T06:04:38;98143.09;;;8.21;76.39
13312;BME280;34033;48.672;9.376;2022-11-15T06:07:03;98143.84;;;8.18;76.13
13312;BME280;34033;48.672;9.376;2022-11-15T06:09:28;98144.22;;;8.16;75.89
13312;BME280;34033;48.672;9.376;2022-11-15T06:11:54;98148.59;;;8.17;75.82
13312;BME280;34033;48.672;9.376;2022-11-15T06:14:19;98146.22;;;8.16;76.03
13312;BME280;34033;48.672;9.376;2022-11-15T06:16:45;98143.84;;;8.18;76.03
13312;BME280;34033;48.672;9.376;2022-11-15T06:19:10;98139.50;;;8.20;76.70
13312;BME280;34033;48.672;9.376;2022-11-15T06:21:35;98148.19;;;8.15;75.86
13312;BME280;34033;48.672;9.376;2022-11-15T06:24:00;98149.25;;;8.04;76.69
13312;BME280;34033;48.672;9.376;2022-11-15T06:26:26;98152.41;;;8.02;75.83
13312;BME280;34033;48.672;9.376;2022-11-15T06:28:51;98156.38;;;8.01;75.75
13312;BME280;34033;48.672;9.376;2022-11-15T06:31:17;98160.31;;;7.96;76.36
13312;BME280;34033;48.672;9.376;2022-11-15T06:33:42;98155.69;;;8.11;77.51
13312;BME280;34033;48.672;9.376;2022-11-15T06:36:10;98152.50;;;8.09;76.74
13312;BME280;34033;48.672;9.376;2022-11-15T06:38:35;98146.16;;;8.12;77.02
13312;BME280;34033;48.672;9.376;2022-11-15T06:41:02;98158.81;;;8.06;76.74
13312;BME280;34033;48.672;9.376;2022-11-15T06:43:28;98157.63;;;8.07;76.68
13312;BME280;34033;48.672;9.376;2022-11-15T06:45:54;98151.63;;;8.02;75.98
13312;BME280;34033;48.672;9.376;2022-11-15T06:48:19;98154.75;;;8.00;76.21
13312;BME280;34033;48.672;9.376;2022-11-15T06:50:51;98147.19;;;7.97;76.61
13312;BME280;34033;48.672;9.376;2022-11-15T06:53:16;98151.63;;;8.02;76.59
13312;BME280;34033;48.672;9.376;2022-11-15T06:55:42;98153.56;;;7.97;76.94
13312;BME280;34033;48.672;9.376;2022-11-15T06:58:07;98154.38;;;7.98;76.34
13312;BME280;34033;48.672;9.376;2022-11-15T07:00:32;98150.34;;;7.95;76.11
13312;BME280;34033;48.672;9.376;2022-11-15T07:03:01;98149.13;;;7.93;76.74
13312;BME280;34033;48.672;9.376;2022-11-15T07:05:27;98148.38;;;7.96;76.59
13312;BME280;34033;48.672;9.376;2022-11-15T07:07:54;98154.03;;;8.03;76.76
13312;BME280;34033;48.672;9.376;2022-11-15T07:10:20;98148.00;;;7.97;77.46
13312;BME280;34033;48.672;9.376;2022-11-15T07:12:48;98155.16;;;7.99;76.72
13312;BME280;34033;48.672;9.376;2022-11-15T07:15:14;98152.50;;;8.09;77.64
13312;BME280;34033;48.672;9.376;2022-11-15T07:17:40;98154.06;;;8.07;76.71
13312;BME280;34033;48.672;9.376;2022-11-15T07:20:05;98147.69;;;8.06;76.46
13312;BME280;34033;48.672;9.376;2022-11-15T07:22:31;98143.25;;;8.02;76.80
13312;BME280;34033;48.672;9.376;2022-11-15T07:24:56;98151.97;;;8.00;77.34
13312;BME280;34033;48.672;9.376;2022-11-15T07:27:22;98145.59;;;7.96;76.98
13312;BME280;34033;48.672;9.376;2022-11-15T07:29:47;98151.06;;;7.89;77.44
13312;BME280;34033;48.672;9.376;2022-11-15T07:32:12;98152.78;;;8.01;78.11
13312;BME280;34033;48.672;9.376;2022-11-15T07:34:38;98159.50;;;7.96;77.72
13312;BME280;34033;48.672;9.376;2022-11-15T07:37:03;98160.00;;;8.05;77.82
13312;BME280;34033;48.672;9.376;2022-11-15T07:39:28;98157.94;;;7.99;79.24
13312;BME280;34033;48.672;9.376;2022-11-15T07:41:53;98154.84;;;8.07;79.24
13312;BME280;34033;48.672;9.376;2022-11-15T07:44:39;98144.66;;;8.22;78.50
13312;BME280;34033;48.672;9.376;2022-11-15T07:47:04;98147.19;;;8.30;77.85
13312;BME280;34033;48.672;9.376;2022-11-15T07:49:29;98152.84;;;8.38;77.51
13312;BME280;34033;48.672;9.376;2022-11-15T07:51:55;98140.13;;;8.44;77.20
13312;BME280;34033;48.672;9.376;2022-11-15T07:54:20;98139.84;;;8.56;77.17
13312;BME280;34033;48.672;9.376;2022-11-15T07:56:45;98134.81;;;8.72;76.68
13312;BME280;34033;48.672;9.376;2022-11-15T07:59:11;98138.13;;;8.88;76.41
13312;BME280;34033;48.672;9.376;2022-11-15T08:01:36;98125.44;;;8.94;75.67
13312;BME280;34033;48.672;9.376;2022-11-15T08:04:01;98127.16;;;9.09;75.72
13312;BME280;34033;48.672;9.376;2022-11-15T08:06:26;98131.22;;;9.23;76.09
13312;BME280;34033;48.672;9.376;2022-11-15T08:08:52;98123.72;;;9.34;75.95
13312;BME280;34033;48.672;9.376;2022-11-15T08:11:17;98106.63;;;9.42;75.66
13312;BME280;34033;48.672;9.376;2022-11-15T08:13:42;98106.69;;;9.53;75.03
13312;BME280;34033;48.672;9.376;2022-11-15T08:16:08;98105.50;;;9.61;75.12
13312;BME280;34033;48.672;9.376;2022-11-15T08:18:34;98119.91;;;9.70;75.36
13312;BME280;34033;48.672;9.376;2022-11-15T08:21:02;98106.78;;;9.78;74.76
13312;BME280;34033;48.672;9.376;2022-11-15T08:23:28;98112.34;;;9.74;74.96
13312;BME280;34033;48.672;9.376;2022-11-15T08:25:59;98106.34;;;9.69;75.01
13312;BME280;34033;48.672;9.376;2022-11-15T08:28:25;98103.94;;;9.67;75.07
13312;BME280;34033;48.672;9.376;2022-11-15T08:30:50;98099.56;;;9.70;75.40
13312;BME280;34033;48.672;9.376;2022-11-15T08:33:15;98094.78;;;9.70;75.43
13312;BME280;34033;48.672;9.376;2022-11-15T08:35:42;98093.19;;;9.73;75.43
13312;BME280;34033;48.672;9.376;2022-11-15T08:38:08;98093.19;;;9.73;74.99
13312;BME280;34033;48.672;9.376;2022-11-15T08:40:33;98089.22;;;9.77;75.62
13312;BME280;34033;48.672;9.376;2022-11-15T08:42:58;98086.84;;;9.76;75.25
13312;BME280;34033;48.672;9.376;2022-11-15T08:45:27;98081.28;;;9.86;77.01
13312;BME280;34033;48.672;9.376;2022-11-15T08:47:52;98082.88;;;9.87;76.35
13312;BME280;34033;48.672;9.376;2022-11-15T08:50:18;98080.06;;;9.87;76.15
13312;BME280;34033;48.672;9.376;2022-11-15T08:52:43;98072.91;;;9.90;76.36
13312;BME280;34033;48.672;9.376;2022-11-15T08:55:08;98078.09;;;9.98;76.34
13312;BME280;34033;48.672;9.376;2022-11-15T08:57:34;98080.13;;;10.05;76.51
13312;BME280;34033;48.672;9.376;2022-11-15T08:59:59;98081.34;;;10.11;75.70
13312;BME280;34033;48.672;9.376;2022-11-15T09:02:25;98087.78;;;10.19;76.21
13312;BME280;34033;48.672;9.376;2022-11-15T09:04:50;98071.00;;;10.26;75.72
13312;BME280;34033;48.672;9.376;2022-11-15T09:07:15;98069.84;;;10.30;75.52
13312;BME280;34033;48.672;9.376;2022-11-15T09:09:41;98065.81;;;10.31;75.62
13312;BME280;34033;48.672;9.376;2022-11-15T09:12:07;98059.88;;;10.36;75.95
13312;BME280;34033;48.672;9.376;2022-11-15T09:14:33;98059.06;;;10.39;75.34
13312;BME280;34033;48.672;9.376;2022-11-15T09:16:59;98053.47;;;10.39;75.68
13312;BME280;34033;48.672;9.376;2022-11-15T09:19:25;98053.06;;;10.44;75.30
13312;BME280;34033;48.672;9.376;2022-11-15T09:21:50;98055.84;;;10.48;75.63
13312;BME280;34033;48.672;9.376;2022-11-15T09:24:15;98045.50;;;10.52;75.53
13312;BME280;34033;48.672;9.376;2022-11-15T09:26:42;98044.69;;;10.69;76.22
13312;BME280;34033;48.672;9.376;2022-11-15T09:29:07;98048.66;;;10.86;77.22
13312;BME280;34033;48.672;9.376;2022-11-15T09:31:33;98044.63;;;11.01;76.62
13312;BME280;34033;48.672;9.376;2022-11-15T09:33:58;98048.19;;;11.09;76.44
13312;BME280;34033;48.672;9.376;2022-11-15T09:36:24;98047.81;;;11.07;77.38
13312;BME280;34033;48.672;9.376;2022-11-15T09:38:49;98047.78;;;11.14;77.18
13312;BME280;34033;48.672;9.376;2022-11-15T09:44:00;98039.75;;;11.30;75.29
13312;BME280;34033;48.672;9.376;2022-11-15T09:49:37;98034.84;;;11.62;75.35
13312;BME280;34033;48.672;9.376;2022-11-15T09:52:03;98037.97;;;11.75;75.50
13312;BME280;34033;48.672;9.376;2022-11-15T09:57:14;98027.13;;;11.88;73.51
13312;BME280;34033;48.672;9.376;2022-11-15T10:05:02;98022.63;;;12.04;72.37
13312;BME280;34033;48.672;9.376;2022-11-15T10:10:25;98021.53;;;12.43;74.31
13312;BME280;34033;48.672;9.376;2022-11-15T10:12:52;98016.69;;;12.47;72.44
13312;BME280;34033;48.672;9.376;2022-11-15T10:15:19;98009.41;;;12.53;72.19
13312;BME280;34033;48.672;9.376;2022-11-15T10:20:59;98005.63;;;12.74;71.18
13312;BME280;34033;48.672;9.376;2022-11-15T10:23:23;98010.34;;;12.84;70.97
13312;BME280;34033;48.672;9.376;2022-11-15T10:25:52;98007.16;;;12.82;69.74
13312;BME280;34033;48.672;9.376;2022-11-15T10:28:27;98004.34;;;12.82;70.19
13312;BME280;34033;48.672;9.376;2022-11-15T10:30:54;98001.94;;;12.80;70.31
13312;BME280;34033;48.672;9.376;2022-11-15T10:39:04;97982.84;;;12.68;70.18
13312;BME280;34033;48.672;9.376;2022-11-15T10:41:34;97980.00;;;12.72;70.73
13312;BME280;34033;48.672;9.376;2022-11-15T10:46:32;97975.78;;;12.53;70.58
13312;BME280;34033;48.672;9.376;2022-11-15T10:51:48;97962.97;;;12.52;71.34
13312;BME280;34033;48.672;9.376;2022-11-15T10:54:25;97956.03;;;12.64;71.41
13312;BME280;34033;48.672;9.376;2022-11-15T10:56:54;97953.13;;;12.74;70.67
13312;BME280;34033;48.672;9.376;2022-11-15T10:59:30;97953.06;;;12.81;70.73
13312;BME280;34033;48.672;9.376;2022-11-15T11:01:57;97953.75;;;12.92;71.36
13312;BME280;34033;48.672;9.376;2022-11-15T11:04:23;97954.25;;;12.84;70.27
13312;BME280;34033;48.672;9.376;2022-11-15T11:06:53;97958.47;;;12.99;70.38
13312;BME280;34033;48.672;9.376;2022-11-15T11:09:30;97958.59;;;12.88;69.34
13312;BME280;34033;48.672;9.376;2022-11-15T11:11:57;97948.53;;;12.91;68.96
13312;BME280;34033;48.672;9.376;2022-11-15T11:14:24;97957.41;;;12.86;69.71
13312;BME280;34033;48.672;9.376;2022-11-15T11:20:22;97954.19;;;12.87;69.57
13312;BME280;34033;48.672;9.376;2022-11-15T11:26:15;97945.94;;;13.11;69.85
13312;BME280;34033;48.672;9.376;2022-11-15T11:28:53;97945.50;;;13.16;69.96
13312;BME280;34033;48.672;9.376;2022-11-15T11:47:32;97916.31;;;13.67;69.57
13312;BME280;34033;48.672;9.376;2022-11-15T11:50:25;97913.84;;;13.72;68.98
13312;BME280;34033;48.672;9.376;2022-11-15T11:53:00;97907.69;;;13.81;69.27
13312;BME280;34033;48.672;9.376;2022-11-15T11:55:37;97903.91;;;13.91;69.41
13312;BME280;34033;48.672;9.376;2022-11-15T11:58:17;97894.94;;;14.00;68.66
13312;BME280;34033;48.672;9.376;2022-11-15T12:03:47;97892.25;;;14.16;68.30
13312;BME280;34033;48.672;9.376;2022-11-15T12:12:15;97890.28;;;14.36;67.45
13312;BME280;34033;48.672;9.376;2022-11-15T12:14:51;97876.97;;;14.40;67.18
13312;BME280;34033;48.672;9.376;2022-11-15T12:17:28;97869.31;;;14.44;67.58
13312;BME280;34033;48.672;9.376;2022-11-15T12:20:03;97868.84;;;14.46;67.49
13312;BME280;34033;48.672;9.376;2022-11-15T12:28:01;97863.41;;;14.35;67.39
13312;BME280;34033;48.672;9.376;2022-11-15T12:33:41;97860.25;;;14.33;67.11
13312;BME280;34033;48.672;9.376;2022-11-15T12:41:17;97852.22;;;14.32;67.81
13312;BME280;34033;48.672;9.376;2022-11-15T12:43:44;97852.22;;;14.32;68.25
13312;BME280;34033;48.672;9.376;2022-11-15T12:46:22;97852.56;;;14.34;67.63
13312;BME280;34033;48.672;9.376;2022-11-15T12:48:51;97854.16;;;14.35;68.22
13312;BME280;34033;48.672;9.376;2022-11-15T12:51:19;97852.94;;;14.36;67.94
13312;BME280;34033;48.672;9.376;2022-11-15T12:53:45;97854.88;;;14.42;68.38
13312;BME280;34033;48.672;9.376;2022-11-15T13:11:59;97831.38;;;14.52;67.01
13312;BME280;34033;48.672;9.376;2022-11-15T13:14:41;97826.91;;;14.55;67.19
13312;BME280;34033;48.672;9.376;2022-11-15T13:17:36;97810.81;;;14.55;67.15
13312;BME280;34033;48.672;9.376;2022-11-15T13:25:33;97812.19;;;14.67;66.84
13312;BME280;34033;48.672;9.376;2022-11-15T13:33:16;97797.25;;;14.70;66.80
13312;BME280;34033;48.672;9.376;2022-11-15T13:35:46;97796.03;;;14.71;66.50
13312;BME280;34033;48.672;9.376;2022-11-15T13:38:28;97793.56;;;14.73;66.71
13312;BME280;34033;48.672;9.376;2022-11-15T13:40:54;97794.88;;;14.88;71.15
13312;BME280;34033;48.672;9.376;2022-11-15T13:48:42;97779.56;;;14.89;66.77
13312;BME280;34033;48.672;9.376;2022-11-15T13:51:34;97772.44;;;14.85;66.70
13312;BME280;34033;48.672;9.376;2022-11-15T13:56:28;97761.47;;;15.07;69.11
13312;BME280;34033;48.672;9.376;2022-11-15T13:58:56;97756.28;;;15.05;67.19
13312;BME280;34033;48.672;9.376;2022-11-15T14:01:22;97756.38;;;15.01;66.76
13312;BME280;34033;48.672;9.376;2022-11-15T14:03:54;97748.44;;;14.96;66.87
13312;BME280;34033;48.672;9.376;2022-11-15T14:06:23;97742.91;;;14.93;66.79
13312;BME280;34033;48.672;9.376;2022-11-15T14:11:37;97731.91;;;14.82;66.43
13312;BME280;34033;48.672;9.376;2022-11-15T14:16:38;97726.41;;;14.75;66.70
13312;BME280;34033;48.672;9.376;2022-11-15T14:19:06;97723.31;;;14.70;67.21
13312;BME280;34033;48.672;9.376;2022-11-15T14:21:32;97722.69;;;14.62;66.80
13312;BME280;34033;48.672;9.376;2022-11-15T14:24:18;97716.84;;;14.53;67.31
13312;BME280;34033;48.672;9.376;2022-11-15T14:26:44;97716.56;;;14.47;67.87
13312;BME280;34033;48.672;9.376;2022-11-15T14:29:26;97707.47;;;14.40;67.60
13312;BME280;34033;48.672;9.376;2022-11-15T14:31:53;97709.94;;;14.38;68.35
13312;BME280;34033;48.672;9.376;2022-11-15T14:34:19;97704.25;;;14.41;68.07
13312;BME280;34033;48.672;9.376;2022-11-15T14:36:47;97703.44;;;14.41;68.75
13312;BME280;34033;48.672;9.376;2022-11-15T14:39:12;97700.31;;;14.35;69.05
13312;BME280;34033;48.672;9.376;2022-11-15T14:41:38;97696.78;;;14.31;69.81
13312;BME280;34033;48.672;9.376;2022-11-15T14:44:04;97691.59;;;14.30;70.38
13312;BME280;34033;48.672;9.376;2022-11-15T14:46:30;97686.69;;;14.34;70.02
13312;BME280;34033;48.672;9.376;2022-11-15T14:48:56;97684.66;;;14.34;70.09
13312;BME280;34033;48.672;9.376;2022-11-15T14:51:21;97687.56;;;14.31;70.64
13312;BME280;34033;48.672;9.376;2022-11-15T14:53:47;97679.66;;;14.26;71.63
13312;BME280;34033;48.672;9.376;2022-11-15T14:56:13;97676.13;;;14.22;71.85
13312;BME280;34033;48.672;9.376;2022-11-15T14:58:39;97682.25;;;14.16;72.40
13312;BME280;34033;48.672;9.376;2022-11-15T15:01:25;97686.34;;;14.12;73.43
13312;BME280;34033;48.672;9.376;2022-11-15T15:03:52;97673.66;;;14.04;73.51
13312;BME280;34033;48.672;9.376;2022-11-15T15:06:21;97670.56;;;13.98;73.86
13312;BME280;34033;48.672;9.376;2022-11-15T15:08:46;97669.47;;;13.92;74.39
13312;BME280;34033;48.672;9.376;2022-11-15T15:11:22;97665.66;;;13.83;75.02
13312;BME280;34033;48.672;9.376;2022-11-15T15:13:48;97667.72;;;13.78;75.55
13312;BME280;34033;48.672;9.376;2022-11-15T15:16:13;97658.16;;;13.76;76.07
13312;BME280;34033;48.672;9.376;2022-11-15T15:18:39;97658.59;;;13.74;75.88
13312;BME280;34033;48.672;9.376;2022-11-15T15:21:17;97656.66;;;13.71;76.27
13312;BME280;34033;48.672;9.376;2022-11-15T15:23:44;97651.06;;;13.68;76.35
13312;BME280;34033;48.672;9.376;2022-11-15T15:26:09;97649.06;;;13.68;76.62
13312;BME280;34033;48.672;9.376;2022-11-15T15:28:34;97645.13;;;13.66;77.18